Cedarvale, New Mexico
Current Conditions -  °F | °C
As of 3:53 AM on Thursday 18 Dec 2014 (Local Time) from KCQC Reporting Station
Clear Clear  
Wind Chill: 12°   Ceiling: Unl
Heat Index: 26°   Visibility: 10mi
Dew Point: 23°   Wind: 20mph
Humidity: 88%   Direction: 280°W
Pressure: 30.03"   Gusts: NA
Location:  34.37°N, 105.7°W
Report Text: KCQC 181053Z AUTO 28017KT 10SM CLR M03/M05 A3003 RMK AO2 SLP172 T10331050
Loading
Personal Weather Stations






























Interactive Weather Map New forecast layout! Learn more

10-Day Weather Forecast

Advertisements
Track Severe Weather on mobile